createdAt,value
2022-11-26T00:02:22.809Z,55.00
2022-11-26T00:04:51.178Z,65.60
2022-11-26T00:07:25.487Z,61.80
2022-11-26T00:09:53.850Z,59.50
2022-11-26T00:12:23.658Z,57.50
2022-11-26T00:14:51.248Z,59.50
2022-11-26T00:17:19.386Z,61.30
2022-11-26T00:19:46.787Z,74.70
2022-11-26T00:22:31.939Z,57.70
2022-11-26T00:24:58.800Z,53.50
2022-11-26T00:27:27.160Z,52.90
2022-11-26T00:29:54.701Z,47.00
2022-11-26T00:32:24.778Z,55.90
2022-11-26T00:34:52.711Z,54.00
2022-11-26T00:37:27.813Z,49.80
2022-11-26T00:39:55.877Z,64.90
2022-11-26T00:42:22.870Z,52.10
2022-11-26T00:44:49.922Z,57.70
2022-11-26T00:47:16.640Z,61.50
2022-11-26T00:49:43.489Z,58.10
2022-11-26T00:52:33.664Z,56.10
2022-11-26T00:55:06.692Z,58.20
2022-11-26T00:57:34.221Z,53.50
2022-11-26T01:00:00.977Z,66.30
2022-11-26T01:02:27.840Z,71.00
2022-11-26T01:04:54.697Z,52.60
2022-11-26T01:07:21.530Z,64.50
2022-11-26T01:09:49.555Z,57.30
2022-11-26T01:12:16.308Z,72.90
2022-11-26T01:14:43.116Z,52.40
2022-11-26T01:17:11.635Z,70.50
2022-11-26T01:19:38.422Z,47.80
2022-11-26T01:22:05.155Z,58.30
2022-11-26T01:24:31.943Z,58.30
2022-11-26T01:26:58.682Z,70.80
2022-11-26T01:29:25.542Z,73.60
2022-11-26T01:31:52.361Z,60.10
2022-11-26T01:34:19.159Z,61.70
2022-11-26T01:36:45.911Z,54.10
2022-11-26T01:39:20.786Z,59.20
2022-11-26T01:41:59.466Z,60.70
2022-11-26T01:44:29.392Z,66.80
2022-11-26T01:46:57.690Z,50.40
2022-11-26T01:49:33.037Z,66.70
2022-11-26T01:52:05.617Z,53.80
2022-11-26T01:54:36.468Z,65.70
2022-11-26T01:57:18.395Z,61.00
2022-11-26T01:59:50.606Z,70.40
2022-11-26T02:02:18.404Z,71.40
2022-11-26T02:04:54.656Z,67.70
2022-11-26T02:07:21.561Z,62.20
2022-11-26T02:09:48.572Z,68.00
2022-11-26T02:12:15.380Z,51.80
2022-11-26T02:14:43.572Z,62.10
2022-11-26T02:17:24.889Z,64.60
2022-11-26T02:20:13.081Z,60.40
2022-11-26T02:22:45.829Z,60.90
2022-11-26T02:25:15.438Z,67.90
2022-11-26T02:28:09.948Z,68.10
2022-11-26T02:30:41.404Z,82.60
2022-11-26T02:33:34.649Z,63.70
2022-11-26T02:36:21.789Z,67.80
2022-11-26T02:38:49.801Z,72.80
2022-11-26T02:41:17.400Z,61.40
2022-11-26T02:43:44.630Z,66.40
2022-11-26T02:46:18.118Z,62.10
2022-11-26T02:48:49.322Z,71.90
2022-11-26T02:51:23.650Z,59.20
2022-11-26T02:53:52.227Z,74.00
2022-11-26T02:56:28.897Z,63.50
2022-11-26T02:58:56.834Z,56.40
2022-11-26T03:01:39.490Z,62.30
2022-11-26T03:04:11.281Z,65.70
2022-11-26T03:06:39.729Z,78.10
2022-11-26T03:09:06.888Z,58.10
2022-11-26T03:11:33.848Z,70.10
2022-11-26T03:14:00.808Z,69.80
2022-11-26T03:16:27.644Z,63.60
2022-11-26T03:18:54.518Z,50.40
2022-11-26T03:21:21.356Z,68.40
2022-11-26T03:23:48.342Z,75.50
2022-11-26T03:26:15.152Z,67.10
2022-11-26T03:28:41.973Z,82.70
2022-11-26T03:31:08.856Z,64.50
2022-11-26T03:33:35.740Z,71.20
2022-11-26T03:36:02.800Z,74.20
2022-11-26T03:38:29.590Z,58.60
2022-11-26T03:41:01.712Z,66.50
2022-11-26T03:46:20.700Z,64.10
2022-11-26T03:48:47.500Z,58.90
2022-11-26T03:51:14.267Z,86.10
2022-11-26T03:53:41.096Z,88.50
2022-11-26T03:56:08.145Z,71.80
2022-11-26T03:58:35.113Z,62.20
2022-11-26T04:01:07.926Z,65.70
2022-11-26T04:03:34.852Z,72.10
2022-11-26T04:06:01.970Z,69.70
2022-11-26T04:08:28.820Z,63.90
2022-11-26T04:10:55.650Z,50.60
2022-11-26T04:13:22.618Z,70.70
2022-11-26T04:15:49.548Z,66.80
2022-11-26T04:18:16.342Z,52.10
2022-11-26T04:20:43.500Z,71.70
2022-11-26T04:23:10.706Z,64.30
2022-11-26T04:25:37.477Z,54.70
2022-11-26T04:28:04.377Z,66.80
2022-11-26T04:30:31.325Z,73.10
2022-11-26T04:32:58.154Z,67.80
2022-11-26T04:35:25.068Z,38.30
2022-11-26T04:37:51.944Z,52.20
2022-11-26T04:40:19.503Z,51.40
2022-11-26T04:42:46.281Z,63.60
2022-11-26T04:45:13.100Z,65.90
2022-11-26T04:47:42.889Z,66.70
2022-11-26T04:50:10.820Z,79.40
2022-11-26T04:52:37.667Z,50.70
2022-11-26T04:55:04.864Z,56.40
2022-11-26T04:57:31.695Z,70.60
2022-11-26T04:59:58.476Z,64.20
2022-11-26T05:02:25.326Z,57.30
2022-11-26T05:04:52.194Z,69.10
2022-11-26T05:07:19.134Z,55.60
2022-11-26T05:09:45.969Z,63.00
2022-11-26T05:12:12.875Z,49.50
2022-11-26T05:14:40.069Z,59.90
2022-11-26T05:17:07.240Z,61.30
2022-11-26T05:19:34.418Z,51.40
2022-11-26T05:22:01.240Z,56.90
2022-11-26T05:24:28.147Z,53.60
2022-11-26T05:26:57.213Z,57.60
2022-11-26T05:29:25.455Z,52.60
2022-11-26T05:31:52.554Z,39.90
2022-11-26T05:34:20.524Z,51.00
2022-11-26T05:36:47.383Z,51.20
2022-11-26T05:39:14.182Z,58.20
2022-11-26T05:41:40.971Z,41.00
2022-11-26T05:44:07.952Z,49.20
2022-11-26T05:46:39.538Z,55.90
2022-11-26T05:49:06.899Z,53.50
2022-11-26T05:51:33.948Z,56.60
2022-11-26T05:54:00.977Z,54.20
2022-11-26T05:56:27.939Z,52.60
2022-11-26T05:58:54.867Z,57.60
2022-11-26T06:01:21.643Z,37.20
2022-11-26T06:03:48.462Z,41.20
2022-11-26T06:06:15.332Z,50.70
2022-11-26T06:08:42.031Z,46.20
2022-11-26T06:11:13.800Z,53.10
2022-11-26T06:13:40.610Z,39.10
2022-11-26T06:16:07.848Z,52.10
2022-11-26T06:18:37.308Z,37.50
2022-11-26T06:21:06.078Z,53.90
2022-11-26T06:23:33.933Z,56.20
2022-11-26T06:26:00.785Z,65.60
2022-11-26T06:28:27.531Z,62.10
2022-11-26T06:30:55.306Z,60.40
2022-11-26T06:33:22.172Z,54.90
2022-11-26T06:35:48.964Z,59.70
2022-11-26T06:38:18.489Z,48.40
2022-11-26T06:40:45.308Z,45.10
2022-11-26T06:43:12.260Z,78.30
2022-11-26T06:45:39.091Z,53.20
2022-11-26T06:48:05.937Z,70.60
2022-11-26T06:50:32.910Z,65.50
2022-11-26T06:52:59.756Z,61.20
2022-11-26T06:55:26.545Z,63.00
2022-11-26T06:57:53.869Z,66.30
2022-11-26T07:00:21.512Z,69.00
2022-11-26T07:02:48.414Z,82.60
2022-11-26T07:05:15.291Z,62.50
2022-11-26T07:07:42.252Z,76.10
2022-11-26T07:10:09.279Z,70.00
2022-11-26T07:12:36.357Z,67.60
2022-11-26T07:15:03.578Z,55.70
2022-11-26T07:17:30.355Z,69.10
2022-11-26T07:19:57.339Z,56.20
2022-11-26T07:22:24.156Z,58.50
2022-11-26T07:24:51.074Z,69.90
2022-11-26T07:27:17.784Z,62.50
2022-11-26T07:29:44.567Z,57.70
2022-11-26T07:32:11.344Z,49.00
2022-11-26T07:34:38.354Z,62.10
2022-11-26T07:37:05.674Z,65.20
2022-11-26T07:39:32.550Z,59.00
2022-11-26T07:41:59.311Z,79.50
2022-11-26T07:44:26.163Z,55.10
2022-11-26T07:46:53.138Z,70.20
2022-11-26T07:49:19.917Z,54.00
2022-11-26T07:51:46.948Z,55.20
2022-11-26T07:54:13.738Z,63.30
2022-11-26T07:56:40.445Z,60.10
2022-11-26T07:59:07.235Z,67.70
2022-11-26T08:01:36.069Z,67.50
2022-11-26T08:04:05.933Z,61.40
2022-11-26T08:06:33.972Z,57.40
2022-11-26T08:09:02.288Z,55.90
2022-11-26T08:11:32.330Z,56.60
2022-11-26T08:14:05.477Z,52.40
2022-11-26T08:16:33.417Z,72.40
2022-11-26T08:19:03.475Z,96.80
2022-11-26T08:21:30.323Z,54.50
2022-11-26T08:23:58.123Z,72.70
2022-11-26T08:26:33.059Z,100.70
2022-11-26T08:29:03.197Z,79.20
2022-11-26T08:31:30.000Z,67.10
2022-11-26T08:34:01.293Z,76.90
2022-11-26T08:36:29.744Z,69.10
2022-11-26T08:38:57.641Z,136.60
2022-11-26T08:41:24.583Z,147.10
2022-11-26T08:44:06.060Z,87.00
2022-11-26T08:46:37.791Z,74.80
2022-11-26T08:49:05.674Z,95.30
2022-11-26T08:51:33.822Z,81.40
2022-11-26T08:54:00.992Z,58.10
2022-11-26T08:56:27.950Z,57.70
2022-11-26T08:58:54.700Z,76.90
2022-11-26T09:01:30.350Z,86.30
2022-11-26T09:03:59.724Z,55.50
2022-11-26T09:06:29.511Z,96.30
2022-11-26T09:09:14.956Z,97.10
2022-11-26T09:11:45.828Z,80.20
2022-11-26T09:14:15.094Z,61.80
2022-11-26T09:16:42.615Z,40.60
2022-11-26T09:19:11.323Z,39.50
2022-11-26T09:21:38.466Z,49.00
2022-11-26T09:24:05.931Z,42.90
2022-11-26T09:26:33.799Z,40.30
2022-11-26T09:29:01.300Z,48.30
2022-11-26T09:31:28.909Z,39.10
2022-11-26T09:33:58.050Z,33.90
2022-11-26T09:36:25.711Z,34.00
2022-11-26T09:38:56.695Z,35.50
2022-11-26T09:41:32.102Z,28.00
2022-11-26T09:44:14.217Z,32.00
2022-11-26T09:47:12.082Z,30.70
2022-11-26T09:49:51.005Z,69.70
2022-11-26T09:52:20.795Z,46.10
2022-11-26T09:54:51.732Z,28.20
2022-11-26T09:57:30.508Z,28.60
2022-11-26T09:59:57.407Z,38.00
2022-11-26T10:02:25.323Z,26.00
2022-11-26T10:04:52.655Z,24.30
2022-11-26T10:07:44.753Z,31.00
2022-11-26T10:10:21.327Z,25.70
2022-11-26T10:13:17.190Z,23.70
2022-11-26T10:16:19.820Z,27.30
2022-11-26T10:19:02.371Z,27.10
2022-11-26T10:21:58.093Z,25.00
2022-11-26T10:24:41.616Z,22.60
2022-11-26T10:27:15.657Z,25.00
2022-11-26T10:29:48.430Z,19.60
2022-11-26T10:32:23.284Z,21.40
2022-11-26T10:34:52.593Z,23.00
2022-11-26T10:37:21.777Z,17.80
2022-11-26T10:39:58.619Z,24.70
2022-11-26T10:42:41.265Z,18.30
2022-11-26T10:45:21.904Z,20.60
2022-11-26T10:47:48.734Z,18.60
2022-11-26T10:50:46.592Z,28.20
2022-11-26T10:53:06.337Z,21.60
2022-11-26T10:55:43.124Z,16.90
2022-11-26T10:58:21.714Z,20.10
2022-11-26T11:00:48.665Z,21.70
2022-11-26T11:03:33.183Z,18.70
2022-11-26T11:06:25.430Z,19.90
2022-11-26T11:08:54.018Z,22.20
2022-11-26T11:11:27.286Z,24.50
2022-11-26T11:13:54.665Z,20.10
2022-11-26T11:16:40.174Z,24.40
2022-11-26T11:19:21.417Z,28.00
2022-11-26T11:21:48.935Z,36.60
2022-11-26T11:24:17.213Z,22.30
2022-11-26T11:26:47.021Z,26.70
2022-11-26T11:29:42.954Z,35.10
2022-11-26T11:32:35.006Z,24.20
2022-11-26T11:35:29.847Z,25.70
2022-11-26T11:37:57.655Z,22.90
2022-11-26T11:40:29.803Z,18.20
2022-11-26T11:43:04.902Z,16.30
2022-11-26T11:46:00.663Z,17.60
2022-11-26T11:48:49.096Z,19.40
2022-11-26T11:51:36.962Z,24.20
2022-11-26T11:54:20.455Z,22.80
2022-11-26T11:57:05.069Z,36.00
2022-11-26T11:59:57.674Z,39.30
2022-11-26T12:02:37.223Z,42.40
2022-11-26T12:05:22.458Z,32.20
2022-11-26T12:07:58.417Z,24.50
2022-11-26T12:10:39.668Z,23.10
2022-11-26T12:13:12.603Z,21.40
2022-11-26T12:15:52.398Z,23.90
2022-11-26T12:18:31.186Z,22.20
2022-11-26T12:21:24.127Z,30.20
2022-11-26T12:23:58.097Z,26.20
2022-11-26T12:26:36.253Z,24.80
2022-11-26T12:29:14.202Z,24.60
2022-11-26T12:31:48.778Z,29.40
2022-11-26T12:34:39.919Z,27.40
2022-11-26T12:37:18.249Z,21.30
2022-11-26T12:39:55.263Z,26.10
2022-11-26T12:42:33.711Z,30.30
2022-11-26T12:45:29.978Z,25.10
2022-11-26T12:48:05.197Z,24.20
2022-11-26T12:50:42.724Z,25.80
2022-11-26T12:53:47.161Z,30.60
2022-11-26T12:56:41.140Z,24.20
2022-11-26T12:59:07.819Z,33.80
2022-11-26T13:01:34.694Z,27.50
2022-11-26T13:04:29.826Z,34.40
2022-11-26T13:07:05.916Z,23.90
2022-11-26T13:10:10.261Z,21.20
2022-11-26T13:13:02.217Z,29.50
2022-11-26T13:15:41.502Z,31.00
2022-11-26T13:18:43.120Z,30.90
2022-11-26T13:21:16.115Z,28.40
2022-11-26T13:23:45.551Z,29.00
2022-11-26T13:26:37.512Z,41.70
2022-11-26T13:29:33.633Z,35.10
2022-11-26T13:32:26.698Z,36.60
2022-11-26T13:35:16.638Z,36.80
2022-11-26T13:38:05.101Z,36.40
2022-11-26T13:40:40.029Z,28.20
2022-11-26T13:43:10.062Z,29.40
2022-11-26T13:45:49.199Z,25.40
2022-11-26T13:48:37.248Z,25.90
2022-11-26T13:51:11.968Z,22.80
2022-11-26T13:53:56.299Z,33.80
2022-11-26T13:56:26.591Z,29.00
2022-11-26T13:59:08.073Z,41.00
2022-11-26T14:01:42.193Z,36.90
2022-11-26T14:07:05.179Z,36.40
2022-11-26T14:09:44.319Z,26.20
2022-11-26T14:12:12.839Z,27.30
2022-11-26T14:14:41.985Z,38.20
2022-11-26T14:17:23.229Z,38.00
2022-11-26T14:19:56.249Z,39.50
2022-11-26T14:22:22.905Z,39.00
2022-11-26T14:24:52.138Z,30.10
2022-11-26T14:27:25.206Z,33.40
2022-11-26T14:30:07.011Z,33.80
2022-11-26T14:32:39.865Z,31.60
2022-11-26T14:35:20.574Z,37.90
2022-11-26T14:37:53.029Z,39.70
2022-11-26T14:40:26.537Z,35.60
2022-11-26T14:43:14.935Z,32.40
2022-11-26T14:45:44.201Z,40.90
2022-11-26T14:48:21.027Z,34.90
2022-11-26T14:50:48.137Z,39.20
2022-11-26T14:53:15.656Z,30.70
2022-11-26T14:55:43.908Z,36.90
2022-11-26T14:58:18.568Z,40.90
2022-11-26T15:01:20.431Z,42.90
2022-11-26T15:04:25.017Z,45.30
2022-11-26T15:06:51.961Z,36.30
2022-11-26T15:09:25.109Z,41.90
2022-11-26T15:12:12.071Z,47.20
2022-11-26T15:14:55.258Z,53.00
2022-11-26T15:17:24.155Z,43.00
2022-11-26T15:19:53.654Z,51.50
2022-11-26T15:22:33.998Z,51.70
2022-11-26T15:25:01.302Z,47.10
2022-11-26T15:27:47.534Z,42.00
2022-11-26T15:30:24.417Z,39.40
2022-11-26T15:33:02.446Z,44.60
2022-11-26T15:35:30.469Z,42.10
2022-11-26T15:37:57.947Z,49.90
2022-11-26T15:40:47.038Z,40.70
2022-11-26T15:43:22.037Z,51.30
2022-11-26T15:45:50.779Z,44.60
2022-11-26T15:48:51.882Z,44.20
2022-11-26T15:51:30.709Z,48.60
2022-11-26T15:54:01.990Z,41.50
2022-11-26T15:56:36.293Z,51.30
2022-11-26T15:59:12.803Z,42.80
2022-11-26T16:01:43.890Z,52.00
2022-11-26T16:04:32.485Z,50.20
2022-11-26T16:07:20.650Z,56.10
2022-11-26T16:09:49.668Z,47.30
2022-11-26T16:12:34.022Z,40.90
2022-11-26T16:17:47.628Z,46.90
2022-11-26T16:20:24.723Z,55.00
2022-11-26T16:22:56.303Z,38.20
2022-11-26T16:25:34.046Z,45.30
2022-11-26T16:28:09.916Z,50.80
2022-11-26T16:30:38.535Z,59.40
2022-11-26T16:33:06.532Z,66.70
2022-11-26T16:35:50.436Z,51.10
2022-11-26T16:38:22.757Z,52.50
2022-11-26T16:40:50.164Z,44.80
2022-11-26T16:43:17.882Z,61.30
2022-11-26T16:45:45.614Z,56.00
2022-11-26T16:48:23.887Z,62.70
2022-11-26T16:50:53.058Z,50.90
2022-11-26T16:53:20.067Z,54.70
2022-11-26T16:55:49.253Z,57.20
2022-11-26T16:58:26.176Z,79.60
2022-11-26T17:00:54.171Z,59.50
2022-11-26T17:03:24.772Z,60.30
2022-11-26T17:05:55.053Z,51.10
2022-11-26T17:08:22.538Z,38.20
2022-11-26T17:10:50.736Z,55.20
2022-11-26T17:13:17.964Z,45.70
2022-11-26T17:15:44.981Z,43.30
2022-11-26T17:18:22.619Z,51.90
2022-11-26T17:20:50.859Z,46.00
2022-11-26T17:23:18.235Z,56.10
2022-11-26T17:25:48.009Z,54.80
2022-11-26T17:28:15.591Z,45.00
2022-11-26T17:30:44.140Z,56.30
2022-11-26T17:33:11.049Z,40.80
2022-11-26T17:35:38.410Z,51.60
2022-11-26T17:38:13.751Z,46.30
2022-11-26T17:40:41.273Z,47.20
2022-11-26T17:43:08.400Z,72.70
2022-11-26T17:45:35.129Z,46.10
2022-11-26T17:48:01.903Z,45.10
2022-11-26T17:50:30.202Z,41.90
2022-11-26T17:52:56.920Z,48.80
2022-11-26T17:55:25.988Z,46.60
2022-11-26T17:57:54.734Z,47.10
2022-11-26T18:00:27.542Z,51.50
2022-11-26T18:02:57.518Z,44.90
2022-11-26T18:05:25.003Z,54.20
2022-11-26T18:07:52.340Z,48.00
2022-11-26T18:10:21.868Z,44.00
2022-11-26T18:12:51.467Z,43.60
2022-11-26T18:15:21.015Z,53.10
2022-11-26T18:17:50.394Z,42.90
2022-11-26T18:20:19.767Z,54.70
2022-11-26T18:22:50.534Z,59.70
2022-11-26T18:25:17.346Z,47.20
2022-11-26T18:27:45.021Z,47.70
2022-11-26T18:30:13.141Z,54.70
2022-11-26T18:32:40.120Z,55.00
2022-11-26T18:35:07.707Z,54.60
2022-11-26T18:37:36.410Z,60.90
2022-11-26T18:40:04.606Z,44.50
2022-11-26T18:42:38.900Z,45.20
2022-11-26T18:45:08.622Z,51.00
2022-11-26T18:47:37.053Z,55.30
2022-11-26T18:50:04.590Z,58.00
2022-11-26T18:52:31.319Z,54.20
2022-11-26T18:54:59.429Z,53.10
2022-11-26T18:57:27.337Z,51.10
2022-11-26T18:59:54.069Z,59.40
2022-11-26T19:02:22.438Z,63.40
2022-11-26T19:04:49.387Z,62.50
2022-11-26T19:07:16.222Z,49.80
2022-11-26T19:09:43.386Z,57.40
2022-11-26T19:12:12.415Z,55.80
2022-11-26T19:14:39.462Z,72.90
2022-11-26T19:17:06.507Z,62.60
2022-11-26T19:19:33.543Z,62.60
2022-11-26T19:22:01.652Z,75.60
2022-11-26T19:24:29.726Z,75.30
2022-11-26T19:26:57.138Z,54.30
2022-11-26T19:29:24.024Z,63.30
2022-11-26T19:31:50.785Z,56.90
2022-11-26T19:34:17.617Z,85.40
2022-11-26T19:36:47.626Z,64.50
2022-11-26T19:39:15.396Z,56.10
2022-11-26T19:41:42.545Z,53.40
2022-11-26T19:44:09.387Z,57.90
2022-11-26T19:46:40.077Z,57.50
2022-11-26T20:13:48.512Z,48.60
2022-11-26T20:16:25.502Z,77.90
2022-11-26T20:18:52.998Z,56.90
2022-11-26T20:21:23.366Z,69.30
2022-11-26T20:23:51.250Z,64.40
2022-11-26T20:26:28.475Z,93.30
2022-11-26T20:28:59.091Z,92.70
2022-11-26T20:31:25.997Z,91.30
2022-11-26T20:33:54.216Z,65.30
2022-11-26T20:36:22.260Z,77.80
2022-11-26T20:38:58.698Z,81.90
2022-11-26T20:41:29.267Z,64.40
2022-11-26T20:43:59.966Z,80.10
2022-11-26T20:46:27.922Z,85.90
2022-11-26T20:48:56.107Z,75.20
2022-11-26T20:51:24.323Z,77.00
2022-11-26T20:53:52.715Z,50.30
2022-11-26T20:56:21.759Z,52.00
2022-11-26T20:58:50.009Z,49.20
2022-11-26T21:01:18.503Z,52.80
2022-11-26T21:03:45.588Z,55.30
2022-11-26T21:06:18.059Z,50.50
2022-11-26T21:08:45.362Z,57.30
2022-11-26T21:11:13.744Z,44.90
2022-11-26T21:13:41.841Z,43.20
2022-11-26T21:16:15.956Z,62.30
2022-11-26T21:18:43.509Z,56.20
2022-11-26T21:21:12.611Z,51.60
2022-11-26T21:23:41.261Z,54.00
2022-11-26T21:26:10.379Z,45.30
2022-11-26T21:28:37.766Z,62.20
2022-11-26T21:31:10.736Z,51.80
2022-11-26T21:33:37.623Z,47.50
2022-11-26T21:36:06.223Z,59.00
2022-11-26T21:38:33.862Z,57.90
2022-11-26T21:41:11.969Z,62.40
2022-11-26T21:43:40.081Z,56.00
2022-11-26T21:46:09.392Z,51.20
2022-11-26T21:48:36.337Z,44.80
2022-11-26T21:51:08.892Z,51.80
2022-11-26T21:53:35.800Z,45.70
2022-11-26T21:56:12.907Z,52.40
2022-11-26T21:58:40.161Z,38.90
2022-11-26T22:01:18.558Z,36.50
2022-11-26T22:03:52.208Z,44.10
2022-11-26T22:06:20.711Z,50.20
2022-11-26T22:08:48.205Z,62.60
2022-11-26T22:11:20.891Z,42.00
2022-11-26T22:13:48.195Z,45.30
2022-11-26T22:16:17.163Z,41.50
2022-11-26T22:18:45.203Z,49.20
2022-11-26T22:21:24.546Z,47.00
2022-11-26T22:23:51.879Z,44.00
2022-11-26T22:26:19.668Z,49.70
2022-11-26T22:28:48.162Z,43.60
2022-11-26T22:31:18.805Z,48.20
2022-11-26T22:33:46.025Z,45.90
2022-11-26T22:36:13.395Z,55.50
2022-11-26T22:38:41.464Z,43.00
2022-11-26T22:41:11.206Z,45.20
2022-11-26T22:43:38.815Z,43.00
2022-11-26T22:46:13.833Z,47.80
2022-11-26T22:48:41.782Z,39.60
2022-11-26T22:51:09.603Z,44.70
2022-11-26T22:53:36.692Z,43.90
2022-11-26T22:56:04.609Z,40.30
2022-11-26T22:58:33.539Z,38.90
2022-11-26T23:01:03.631Z,46.00
2022-11-26T23:03:33.095Z,38.60
2022-11-26T23:06:05.522Z,46.00
2022-11-26T23:08:32.899Z,37.10
2022-11-26T23:11:10.482Z,41.60
2022-11-26T23:13:40.683Z,43.50
2022-11-26T23:16:08.813Z,44.40
2022-11-26T23:18:36.934Z,42.60
2022-11-26T23:21:06.771Z,41.60
2022-11-26T23:23:34.021Z,55.80
2022-11-26T23:26:02.677Z,41.00
2022-11-26T23:28:31.149Z,43.10
2022-11-26T23:31:07.916Z,41.80
2022-11-26T23:33:35.539Z,38.50
2022-11-26T23:36:02.700Z,40.20
2022-11-26T23:38:31.565Z,45.10
2022-11-26T23:41:01.796Z,41.10
2022-11-26T23:43:30.636Z,41.10
2022-11-26T23:46:14.178Z,46.40
2022-11-26T23:48:41.684Z,51.10
2022-11-26T23:51:11.653Z,38.70
2022-11-26T23:53:40.976Z,54.80
2022-11-26T23:56:11.633Z,50.30
2022-11-26T23:58:38.479Z,46.70
